Time;durP1;ratioP1;P1;durP2;ratioP2;P2;SDS_P1;SDS_P2;PMS_P1;PMS_P2;Temp;Humidity;BMP_temperature;BMP_pressure;BME280_temperature;BME280_humidity;BME280_pressure;Samples;Min_cycle;Max_cycle;Signal;HPM_P1;HPM_P2
2021/10/04 00:01:08;;;;;;;;;5.50;5.50;;;;;21.16;56.31;100558.22;6110999;23;45255;-79
2021/10/04 00:03:43;;;;;;;;;7.00;6.00;;;;;21.15;56.51;100569.75;6137482;23;45325;-78
2021/10/04 00:06:09;;;;;;;;;6.00;5.75;;;;;21.20;56.58;100588.13;6137953;23;45337;-78
2021/10/04 00:08:34;;;;;;;;;7.50;5.75;;;;;21.09;56.82;100568.19;6135569;23;45344;-79
2021/10/04 00:11:00;;;;;;;;;6.50;5.75;;;;;21.09;56.38;100570.84;6136547;23;45389;-78
2021/10/04 00:13:25;;;;;;;;;5.00;5.00;;;;;21.12;56.52;100570.75;6135319;23;48104;-78
2021/10/04 00:15:58;;;;;;;;;5.00;4.00;;;;;21.07;56.62;100563.84;6136082;23;45358;-79
2021/10/04 00:18:29;;;;;;;;;5.25;5.25;;;;;21.11;56.51;100578.72;6162848;23;45439;-79
2021/10/04 00:20:57;;;;;;;;;5.75;5.75;;;;;21.20;56.75;100593.44;6135631;23;46139;-79
2021/10/04 00:23:22;;;;;;;;;6.75;5.00;;;;;21.10;56.42;100569.03;6135077;23;46394;-79
2021/10/04 00:25:55;;;;;;;;;5.25;5.25;;;;;21.02;56.76;100568.47;6161206;23;45263;-83
2021/10/04 00:28:20;;;;;;;;;7.00;4.75;;;;;21.10;56.22;100572.56;6137273;23;45232;-79
2021/10/04 00:30:46;;;;;;;;;5.75;5.50;;;;;21.06;56.41;100564.78;6135641;23;45255;-80
2021/10/04 00:33:11;;;;;;;;;6.50;5.50;;;;;21.09;56.68;100576.13;6187116;23;46053;-80
2021/10/04 00:35:37;;;;;;;;;8.25;7.25;;;;;21.08;56.31;100568.25;6135778;23;45475;-80
2021/10/04 00:38:02;;;;;;;;;5.00;4.00;;;;;21.03;56.46;100564.91;6187432;23;45151;-79
2021/10/04 00:40:30;;;;;;;;;6.50;5.25;;;;;21.04;56.65;100564.84;6160532;23;45416;-79
2021/10/04 00:42:55;;;;;;;;;6.25;5.25;;;;;21.05;56.69;100566.56;6110893;23;47803;-80
2021/10/04 00:45:21;;;;;;;;;5.00;5.00;;;;;21.03;56.60;100571.06;6187143;23;45205;-79
2021/10/04 00:47:46;;;;;;;;;6.50;5.25;;;;;21.07;56.72;100583.31;6110976;23;45265;-80
2021/10/04 00:50:12;;;;;;;;;6.50;5.75;;;;;21.04;56.93;100580.78;6160507;23;45270;-80
2021/10/04 00:52:38;;;;;;;;;4.50;3.50;;;;;21.07;56.47;100583.31;6110766;23;45995;-80
2021/10/04 00:55:04;;;;;;;;;5.25;4.25;;;;;21.07;56.90;100583.31;6160768;23;45228;-80
2021/10/04 00:57:29;;;;;;;;;5.00;4.00;;;;;21.04;56.81;100572.81;6135470;23;45104;-80
2021/10/04 00:59:55;;;;;;;;;6.50;5.00;;;;;21.06;56.67;100586.88;6160822;23;45238;-80
2021/10/04 01:02:20;;;;;;;;;4.50;3.00;;;;;21.05;56.97;100578.97;6136247;23;45234;-80
2021/10/04 01:04:46;;;;;;;;;6.25;5.75;;;;;21.00;56.70;100576.47;6135819;23;45272;-80
2021/10/04 01:07:11;;;;;;;;;5.00;5.00;;;;;21.12;57.08;100593.75;6135377;23;45215;-80
2021/10/04 01:09:37;;;;;;;;;5.00;5.00;;;;;21.08;56.37;100589.47;6111147;23;45538;-79
2021/10/04 01:12:03;;;;;;;;;5.75;3.25;;;;;21.06;56.37;100581.56;6110691;23;47941;-80
2021/10/04 01:14:28;;;;;;;;;6.00;5.50;;;;;21.00;56.38;100575.63;6135577;23;45219;-80
2021/10/04 01:16:54;;;;;;;;;4.00;4.00;;;;;21.06;56.23;100596.63;6161207;23;45409;-80
2021/10/04 01:19:19;;;;;;;;;6.50;5.00;;;;;21.02;56.53;100584.38;6160549;23;45431;-80
2021/10/04 01:21:45;;;;;;;;;4.25;4.25;;;;;20.97;56.31;100575.72;6160595;23;46480;-80
2021/10/04 01:24:10;;;;;;;;;6.00;5.00;;;;;20.98;56.57;100573.03;6187204;23;45372;-80
2021/10/04 01:26:36;;;;;;;;;4.25;3.00;;;;;20.99;56.35;100571.22;6136354;23;45223;-80
2021/10/04 01:29:01;;;;;;;;;4.00;4.00;;;;;20.95;55.96;100574.94;6135502;23;45330;-80
2021/10/04 01:31:27;;;;;;;;;5.50;4.25;;;;;20.97;56.27;100573.09;6160856;23;46264;-80
2021/10/04 01:33:54;;;;;;;;;5.00;4.00;;;;;20.97;55.71;100573.09;6135422;23;45211;-80
2021/10/04 01:36:20;;;;;;;;;4.50;4.00;;;;;21.01;56.13;100583.50;6135205;23;45153;-80
2021/10/04 01:38:46;;;;;;;;;5.25;5.00;;;;;20.94;56.02;100571.41;6135497;23;45927;-80
2021/10/04 01:41:11;;;;;;;;;4.25;4.00;;;;;20.97;56.29;100575.72;6134800;23;47110;-80
2021/10/04 01:43:36;;;;;;;;;4.00;4.00;;;;;20.91;56.33;100563.56;6135766;23;45130;-80
2021/10/04 01:46:02;;;;;;;;;4.00;3.25;;;;;20.94;55.89;100567.88;6136221;23;45360;-80
2021/10/04 01:48:27;;;;;;;;;9.00;4.00;;;;;20.92;56.07;100573.22;6110938;23;45552;-80
2021/10/04 01:50:53;;;;;;;;;5.00;3.75;;;;;20.86;56.17;100561.06;6134758;23;47323;-80
2021/10/04 01:53:18;;;;;;;;;4.00;4.00;;;;;20.89;56.14;100574.22;6159686;23;45340;-80
2021/10/04 01:55:44;;;;;;;;;4.50;3.75;;;;;20.91;56.52;100565.34;6160966;23;45382;-80
2021/10/04 01:58:09;;;;;;;;;6.50;4.00;;;;;21.00;56.62;100586.22;6135408;23;45697;-80
2021/10/04 02:00:35;;;;;;;;;4.75;4.75;;;;;20.95;56.05;100572.28;6187059;23;45567;-80
2021/10/04 02:03:00;;;;;;;;;3.75;3.75;;;;;20.88;56.47;100567.19;6135893;23;45206;-80
2021/10/04 02:05:27;;;;;;;;;5.50;4.50;;;;;20.88;56.49;100566.31;6135766;23;45341;-80
2021/10/04 02:07:52;;;;;;;;;6.75;4.00;;;;;20.87;56.20;100572.56;6135430;23;45472;-80
2021/10/04 02:10:20;;;;;;;;;4.25;4.25;;;;;20.91;56.46;100579.47;6187100;23;45656;-80
2021/10/04 02:12:46;;;;;;;;;6.00;3.25;;;;;20.88;56.46;100576.94;6160415;23;45304;-80
2021/10/04 02:15:11;;;;;;;;;4.25;4.25;;;;;20.91;56.44;100591.88;6110486;23;45139;-80
2021/10/04 02:17:37;;;;;;;;;5.75;4.00;;;;;20.91;56.77;100584.78;6135834;23;45209;-82
2021/10/04 02:20:04;;;;;;;;;5.00;4.00;;;;;20.81;56.26;100568.31;6110417;23;47044;-81
2021/10/04 02:22:32;;;;;;;;;3.75;3.00;;;;;20.91;56.39;100592.72;6110467;23;45373;-80
2021/10/04 02:24:57;;;;;;;;;3.00;3.00;;;;;20.81;56.28;100578.94;6186989;23;45231;-80
2021/10/04 02:27:23;;;;;;;;;3.75;3.00;;;;;20.83;56.68;100590.34;6187126;23;45364;-80
2021/10/04 02:29:48;;;;;;;;;4.00;4.00;;;;;20.92;56.45;100599.75;6110753;23;47822;-81
2021/10/04 02:32:14;;;;;;;;;3.75;3.75;;;;;20.88;56.19;100592.84;6135681;23;45192;-80
2021/10/04 02:34:39;;;;;;;;;4.50;3.00;;;;;20.85;56.35;100587.66;6135104;23;45663;-80
2021/10/04 02:37:04;;;;;;;;;3.50;3.50;;;;;20.84;56.41;100586.78;6135239;23;45393;-80
2021/10/04 02:39:30;;;;;;;;;3.25;3.25;;;;;20.83;56.06;100576.22;6160214;23;45799;-80
2021/10/04 02:41:55;;;;;;;;;4.50;3.25;;;;;20.80;56.41;100568.38;6186756;23;45173;-80
2021/10/04 02:44:21;;;;;;;;;4.00;4.00;;;;;20.81;56.03;100570.13;6160419;23;45236;-80
2021/10/04 02:46:46;;;;;;;;;5.75;4.00;;;;;20.83;56.24;100577.09;6160217;23;45247;-80
2021/10/04 02:49:12;;;;;;;;;4.00;4.00;;;;;20.77;56.08;100566.72;6134562;23;46816;-80
2021/10/04 02:51:37;;;;;;;;;3.00;2.50;;;;;20.75;56.33;100559.72;6134543;23;45303;-80
2021/10/04 02:54:03;;;;;;;;;3.00;2.00;;;;;20.74;56.32;100577.41;6136326;23;45170;-80
2021/10/04 02:56:28;;;;;;;;;4.75;3.00;;;;;20.83;56.15;100594.78;6161162;23;45829;-80
2021/10/04 02:58:53;;;;;;;;;3.00;3.00;;;;;20.69;56.52;100574.06;6187652;23;45460;-80
2021/10/04 03:01:19;;;;;;;;;3.50;3.50;;;;;20.75;56.19;100587.09;6160969;23;45189;-80
2021/10/04 03:03:44;;;;;;;;;4.00;3.00;;;;;20.72;56.22;100576.59;6188292;23;45641;-80
2021/10/04 03:06:10;;;;;;;;;3.75;3.00;;;;;20.70;56.10;100569.63;6135776;23;45379;-80
2021/10/04 03:08:35;;;;;;;;;3.75;2.00;;;;;20.80;56.25;100590.47;6160863;23;46951;-80
2021/10/04 03:11:00;;;;;;;;;2.00;2.00;;;;;20.72;56.37;100573.94;6187763;23;45365;-80
2021/10/04 03:13:27;;;;;;;;;2.50;2.00;;;;;20.72;56.32;100581.91;6136780;23;45207;-80
2021/10/04 03:15:53;;;;;;;;;3.00;2.00;;;;;20.67;56.53;100578.53;6161515;23;45519;-80
2021/10/04 03:18:18;;;;;;;;;2.75;2.75;;;;;20.74;56.36;100584.50;6161343;23;45425;-80
2021/10/04 03:20:43;;;;;;;;;4.50;4.50;;;;;20.74;56.20;100588.03;6160561;23;45130;-81
2021/10/04 03:23:09;;;;;;;;;3.00;2.00;;;;;20.68;56.27;100576.78;6136461;23;45192;-80
2021/10/04 03:25:34;;;;;;;;;1.75;1.75;;;;;20.67;56.43;100580.31;6161415;23;45413;-81
2021/10/04 03:28:00;;;;;;;;;3.00;3.00;;;;;20.66;56.39;100584.75;6161187;23;45294;-80
2021/10/04 03:30:25;;;;;;;;;5.00;2.50;;;;;20.70;56.48;100588.19;6136018;23;45176;-81
2021/10/04 03:32:51;;;;;;;;;3.25;3.00;;;;;20.64;56.45;100586.63;6135972;23;45249;-80
2021/10/04 03:35:19;;;;;;;;;2.25;2.25;;;;;20.72;56.31;100599.59;6187461;23;45488;-80
2021/10/04 03:37:44;;;;;;;;;2.25;2.25;;;;;20.67;56.15;100582.97;6111353;23;47302;-80
2021/10/04 03:40:10;;;;;;;;;3.00;3.00;;;;;20.63;56.48;100581.38;6160799;23;45405;-80
2021/10/04 03:42:36;;;;;;;;;4.00;3.50;;;;;20.64;56.69;100580.44;6160814;23;45383;-80
2021/10/04 03:45:02;;;;;;;;;2.00;2.00;;;;;20.66;56.33;100576.81;6136463;23;45252;-80
2021/10/04 03:47:27;;;;;;;;;4.00;3.00;;;;;20.59;56.52;100573.53;6136213;23;46378;-80
2021/10/04 03:49:53;;;;;;;;;2.00;2.00;;;;;20.64;56.48;100576.00;6136383;23;45191;-80
2021/10/04 03:52:18;;;;;;;;;4.00;3.00;;;;;20.59;56.16;100576.19;6111280;23;45706;-80
2021/10/04 03:54:44;;;;;;;;;3.75;2.00;;;;;20.58;56.38;100576.22;6161130;23;45253;-80
2021/10/04 03:57:09;;;;;;;;;2.00;2.00;;;;;20.58;56.42;100589.47;6160758;23;48257;-80
2021/10/04 03:59:35;;;;;;;;;6.25;3.00;;;;;20.58;56.70;100592.13;6111304;23;45619;-80
2021/10/04 04:02:00;;;;;;;;;3.75;3.50;;;;;20.52;56.72;100589.69;6187818;23;45447;-80
2021/10/04 04:04:26;;;;;;;;;2.75;2.00;;;;;20.60;56.72;100606.22;6160618;23;45504;-80
2021/10/04 04:06:51;;;;;;;;;3.00;2.00;;;;;20.56;56.44;100602.78;6136086;23;46196;-80
2021/10/04 04:09:16;;;;;;;;;4.75;2.25;;;;;20.61;56.79;100621.19;6160869;23;45299;-80
2021/10/04 04:11:42;;;;;;;;;5.00;4.50;;;;;20.55;55.96;100611.66;6111244;23;45502;-80
2021/10/04 04:14:08;;;;;;;;;3.00;2.00;;;;;20.59;56.63;100615.09;6111198;23;45441;-80
2021/10/04 04:16:33;;;;;;;;;2.75;2.00;;;;;20.55;56.49;100611.66;6110946;23;46910;-80
2021/10/04 04:18:59;;;;;;;;;2.00;2.00;;;;;20.56;56.57;100612.53;6135317;23;45330;-80
2021/10/04 04:21:24;;;;;;;;;3.50;2.00;;;;;20.58;56.60;100615.97;6135350;23;45308;-80
2021/10/04 04:23:52;;;;;;;;;5.75;3.25;;;;;20.54;56.64;100612.59;6136169;23;45458;-80
2021/10/04 04:26:17;;;;;;;;;2.00;2.00;;;;;20.56;56.28;100618.69;6187503;23;46121;-80
2021/10/04 04:28:43;;;;;;;;;4.00;2.00;;;;;20.52;56.47;100613.56;6111192;23;45215;-80
2021/10/04 04:31:08;;;;;;;;;2.50;2.50;;;;;20.50;56.54;100613.63;6187585;23;45418;-80
2021/10/04 04:33:34;;;;;;;;;3.25;3.25;;;;;20.51;56.25;100618.00;6135621;23;45239;-81
2021/10/04 04:35:59;;;;;;;;;3.50;2.75;;;;;20.61;56.31;100637.13;6135398;23;47182;-81
2021/10/04 04:38:24;;;;;;;;;3.25;2.00;;;;;20.53;56.41;100624.09;6160048;23;45191;-80
2021/10/04 04:40:50;;;;;;;;;2.00;2.00;;;;;20.56;56.31;100631.94;6136370;23;45227;-81
2021/10/04 04:43:16;;;;;;;;;2.00;2.00;;;;;20.55;56.55;100635.53;6136318;23;45200;-80
2021/10/04 04:45:41;;;;;;;;;3.00;3.00;;;;;20.51;56.52;100631.25;6136192;23;46227;-80
2021/10/04 04:48:07;;;;;;;;;3.00;3.00;;;;;20.51;56.58;100641.00;6136046;23;47144;-79
2021/10/04 04:50:32;;;;;;;;;4.50;2.00;;;;;20.48;57.29;100625.16;6160787;23;45433;-83
2021/10/04 04:52:58;;;;;;;;;1.50;1.50;;;;;20.57;57.14;100643.41;6159868;23;45804;-75
2021/10/04 04:55:23;;;;;;;;;2.50;2.50;;;;;20.56;57.25;100637.25;6135373;23;46040;-76
2021/10/04 04:58:00;;;;;;;;;2.25;2.00;;;;;20.64;57.75;100644.94;6187393;23;45374;-75
2021/10/04 05:01:43;;;;;;;;;;;;;;;;;;;;;
2021/10/04 05:04:38;;;;;;;;;2.50;2.50;;;;;20.53;57.47;100639.16;6064596;23;72712;-86
2021/10/04 05:07:08;;;;;;;;;3.75;3.75;;;;;20.56;57.67;100650.50;6045277;23;46315;-84
2021/10/04 05:09:34;;;;;;;;;2.00;2.00;;;;;20.53;57.55;100640.03;6117763;23;45303;-90
2021/10/04 05:11:59;;;;;;;;;2.00;2.00;;;;;20.56;57.87;100644.34;6136195;23;45100;-89
2021/10/04 05:14:25;;;;;;;;;4.00;2.00;;;;;20.54;57.93;100636.44;6135437;23;45487;-81
2021/10/04 05:16:52;;;;;;;;;2.75;2.75;;;;;20.57;58.30;100652.25;6186543;23;45218;-79
2021/10/04 05:19:18;;;;;;;;;2.75;2.00;;;;;20.66;58.47;100664.31;6134962;23;45325;-75
2021/10/04 05:21:43;;;;;;;;;2.00;2.00;;;;;20.63;59.12;100661.78;6160855;23;45282;-79
2021/10/04 05:24:09;;;;;;;;;3.00;3.00;;;;;20.67;59.41;100655.44;6135430;23;45329;-79
2021/10/04 05:26:38;;;;;;;;;3.00;3.00;;;;;20.72;59.03;100655.31;6135384;23;46903;-78
2021/10/04 05:29:03;;;;;;;;;1.75;1.75;;;;;20.75;59.17;100655.19;6187244;23;45163;-75
2021/10/04 05:31:29;;;;;;;;;2.00;2.00;;;;;20.84;59.02;100663.69;6186670;23;56962;-75
2021/10/04 05:33:54;;;;;;;;;4.50;3.25;;;;;20.85;59.77;100668.13;6160530;23;45248;-75
2021/10/04 05:36:20;;;;;;;;;4.75;3.00;;;;;20.97;59.86;100665.94;6186676;23;45161;-85
2021/10/04 05:38:46;;;;;;;;;2.75;2.75;;;;;21.03;60.04;100661.31;6135710;23;45789;-76
2021/10/04 05:41:12;;;;;;;;;3.25;3.25;;;;;21.11;59.69;100658.34;6160319;23;45212;-74
2021/10/04 05:43:38;;;;;;;;;5.75;3.00;;;;;21.19;59.43;100666.91;6187176;23;45441;-73
2021/10/04 05:46:03;;;;;;;;;2.75;2.75;;;;;21.16;57.95;100657.28;6187088;23;46346;-77
2021/10/04 05:48:29;;;;;;;;;2.00;2.00;;;;;21.24;57.31;100670.28;6187148;23;45237;-75
2021/10/04 05:50:54;;;;;;;;;4.00;2.00;;;;;21.21;57.72;100670.41;6110645;23;45304;-78
2021/10/04 05:53:19;;;;;;;;;3.75;2.75;;;;;21.25;57.31;100682.63;6134594;23;51948;-73
2021/10/04 05:55:45;;;;;;;;;2.25;2.25;;;;;21.24;57.11;100670.28;6134492;23;58527;-73
2021/10/04 05:58:11;;;;;;;;;4.00;4.00;;;;;21.25;57.27;100674.66;6160686;23;45749;-74
2021/10/04 06:00:36;;;;;;;;;3.25;3.00;;;;;21.21;57.12;100670.41;6160666;23;49635;-75
2021/10/04 06:03:01;;;;;;;;;8.00;3.00;;;;;21.25;56.70;100666.69;6135509;23;45245;-75
2021/10/04 06:05:27;;;;;;;;;3.75;2.50;;;;;21.25;57.17;100672.00;6134762;23;47920;-78
2021/10/04 06:07:52;;;;;;;;;3.00;3.00;;;;;21.26;57.28;100679.03;6134171;23;65620;-75
2021/10/04 06:10:18;;;;;;;;;3.25;3.25;;;;;21.25;57.20;100682.63;6110497;23;51221;-75
2021/10/04 06:12:43;;;;;;;;;5.75;3.50;;;;;21.24;57.41;100691.50;6136157;23;45325;-75
2021/10/04 06:15:09;;;;;;;;;2.75;2.75;;;;;21.25;57.18;100693.25;6134768;23;46511;-75
2021/10/04 06:17:36;;;;;;;;;2.50;2.00;;;;;21.24;56.78;100695.94;6135329;23;45204;-75
2021/10/04 06:20:01;;;;;;;;;3.25;3.25;;;;;21.23;57.33;100694.22;6135706;23;45183;-75
2021/10/04 06:22:26;;;;;;;;;4.00;3.75;;;;;21.22;57.38;100696.00;6134958;23;49386;-75
2021/10/04 06:24:53;;;;;;;;;4.00;3.25;;;;;21.20;57.26;100694.31;6159756;23;57275;-75
2021/10/04 06:27:19;;;;;;;;;3.25;3.25;;;;;21.20;57.05;100708.47;6160762;23;45253;-76
2021/10/04 06:29:44;;;;;;;;;3.00;1.50;;;;;21.16;57.03;100704.19;6160728;23;45218;-75
2021/10/04 06:32:10;;;;;;;;;4.75;4.00;;;;;21.16;57.40;100706.84;6135147;23;45475;-75
2021/10/04 06:34:35;;;;;;;;;5.25;3.00;;;;;21.15;56.99;100700.66;6134776;23;47651;-76
2021/10/04 06:37:01;;;;;;;;;4.00;4.00;;;;;21.01;54.00;100696.75;6135354;23;45291;-78
2021/10/04 06:39:26;;;;;;;;;2.00;2.00;;;;;20.74;53.49;100715.31;6134819;23;45400;-76
2021/10/04 06:41:52;;;;;;;;;2.00;2.00;;;;;20.48;54.15;100718.81;6135265;23;45356;-75
2021/10/04 06:44:17;;;;;;;;;2.50;2.50;;;;;20.31;53.08;100714.03;6134591;23;47039;-76
2021/10/04 06:46:43;;;;;;;;;3.50;2.00;;;;;20.12;53.01;100726.13;6159144;23;45267;-76
2021/10/04 06:49:08;;;;;;;;;2.00;2.00;;;;;20.02;53.10;100733.47;6109973;23;45145;-75
2021/10/04 06:51:34;;;;;;;;;3.00;3.00;;;;;19.92;53.73;100733.81;6159518;23;49048;-75
2021/10/04 06:53:59;;;;;;;;;2.25;2.25;;;;;19.88;52.85;100740.09;6134485;23;47990;-75
2021/10/04 06:56:24;;;;;;;;;3.25;3.25;;;;;19.75;53.70;100742.22;6135074;23;45128;-76
2021/10/04 06:58:50;;;;;;;;;3.00;2.00;;;;;19.73;53.80;100742.28;6134766;23;45638;-76
2021/10/04 07:01:16;;;;;;;;;4.00;2.00;;;;;19.73;52.70;100744.06;6186032;23;45246;-75
2021/10/04 07:03:42;;;;;;;;;4.00;4.00;;;;;19.66;52.60;100746.00;6186153;23;45222;-75
2021/10/04 07:06:07;;;;;;;;;3.00;3.00;;;;;19.57;52.55;100745.41;6159823;23;45185;-76
2021/10/04 07:08:32;;;;;;;;;2.50;2.50;;;;;19.56;53.13;100744.53;6134974;23;45416;-76
2021/10/04 07:10:58;;;;;;;;;3.00;2.50;;;;;19.57;52.21;100740.97;6134669;23;45329;-75
2021/10/04 07:13:23;;;;;;;;;2.00;2.00;;;;;19.60;53.03;100743.53;6159493;23;45474;-75
2021/10/04 07:15:49;;;;;;;;;2.00;2.00;;;;;19.60;52.91;100742.66;6134661;23;45195;-75
2021/10/04 07:18:14;;;;;;;;;2.00;2.00;;;;;19.60;53.44;100746.16;6134874;23;45316;-75
2021/10/04 07:20:40;;;;;;;;;2.00;2.00;;;;;19.62;52.36;100740.81;6109698;23;45428;-76
2021/10/04 07:23:05;;;;;;;;;3.00;3.00;;;;;19.63;52.66;100746.06;6134655;23;46214;-76
2021/10/04 07:25:32;;;;;;;;;3.25;2.75;;;;;19.66;52.93;100753.09;6110021;23;45260;-77
2021/10/04 07:27:57;;;;;;;;;3.00;1.75;;;;;19.66;52.77;100756.59;6134288;23;45457;-76
2021/10/04 07:30:22;;;;;;;;;5.00;2.25;;;;;19.65;52.61;100756.66;6109766;23;45466;-76
2021/10/04 07:32:48;;;;;;;;;2.00;2.00;;;;;19.62;52.08;100754.94;6134188;23;46925;-75
2021/10/04 07:35:13;;;;;;;;;4.00;4.00;;;;;19.63;52.29;100751.38;6158239;23;45797;-75
2021/10/04 07:37:39;;;;;;;;;3.50;2.50;;;;;19.60;52.71;100763.84;6133841;23;45415;-76
2021/10/04 07:40:05;;;;;;;;;3.50;2.00;;;;;19.62;52.31;100760.22;6110368;23;45434;-75
2021/10/04 07:42:30;;;;;;;;;2.00;2.00;;;;;19.60;52.45;100771.78;6111273;23;47120;-75
2021/10/04 07:44:56;;;;;;;;;3.00;2.50;;;;;19.58;52.55;100770.97;6135596;23;45907;-77
2021/10/04 07:47:21;;;;;;;;;1.25;1.25;;;;;19.54;52.47;100769.25;6111177;23;45782;-75
2021/10/04 07:49:47;;;;;;;;;2.75;2.75;;;;;19.51;52.18;100772.88;6134822;23;54083;-75
2021/10/04 07:52:13;;;;;;;;;2.00;2.00;;;;;19.45;52.56;100768.59;6110585;23;47246;-79
2021/10/04 07:54:38;;;;;;;;;4.50;3.25;;;;;19.48;52.55;100768.53;6135805;23;45285;-80
2021/10/04 07:57:04;;;;;;;;;6.00;4.00;;;;;19.53;52.09;100772.81;6160993;23;45874;-79
2021/10/04 07:59:29;;;;;;;;;3.00;3.00;;;;;19.52;53.20;100779.88;6187095;23;45253;-79
2021/10/04 08:01:54;;;;;;;;;3.00;2.00;;;;;19.61;51.69;100782.31;6187356;23;45401;-78
2021/10/04 08:04:20;;;;;;;;;3.00;2.00;;;;;19.59;52.41;100770.91;6135524;23;45406;-80
2021/10/04 08:06:45;;;;;;;;;3.00;3.00;;;;;19.69;52.30;100780.34;6135562;23;45267;-79
2021/10/04 08:09:11;;;;;;;;;3.50;3.00;;;;;19.74;52.22;100780.22;6160043;23;45277;-79
2021/10/04 08:11:36;;;;;;;;;4.00;3.00;;;;;19.71;52.19;100769.69;6160790;23;45307;-77
2021/10/04 08:14:02;;;;;;;;;2.25;2.00;;;;;19.80;52.87;100764.13;6135560;23;45880;-80
2021/10/04 08:16:27;;;;;;;;;4.00;3.00;;;;;19.85;52.25;100756.06;6136405;23;45337;-79
2021/10/04 08:18:53;;;;;;;;;4.50;4.00;;;;;19.93;52.26;100765.53;6159502;23;45338;-79
2021/10/04 08:21:19;;;;;;;;;4.25;4.25;;;;;19.95;51.92;100762.84;6160473;23;47982;-78
2021/10/04 08:23:45;;;;;;;;;5.25;4.00;;;;;19.92;51.48;100762.94;6136437;23;45245;-79
2021/10/04 08:26:10;;;;;;;;;6.00;5.00;;;;;19.96;51.65;100780.47;6136282;23;45304;-79
2021/10/04 08:28:36;;;;;;;;;2.00;2.00;;;;;19.92;51.60;100773.53;6160400;23;45425;-78
2021/10/04 08:31:01;;;;;;;;;8.50;5.50;;;;;19.91;51.87;100777.97;6136079;23;46579;-77
2021/10/04 08:33:27;;;;;;;;;6.50;4.75;;;;;19.94;51.48;100777.88;6136541;23;45299;-78
2021/10/04 08:35:52;;;;;;;;;4.00;3.00;;;;;19.94;51.49;100783.16;6136189;23;45227;-78
2021/10/04 08:38:17;;;;;;;;;4.00;4.00;;;;;19.92;51.52;100774.41;6136322;23;45428;-77
2021/10/04 08:40:43;;;;;;;;;6.00;4.25;;;;;19.94;51.66;100772.56;6135055;23;47218;-78
2021/10/04 08:43:08;;;;;;;;;6.00;4.25;;;;;19.94;51.52;100771.69;6160883;23;45370;-78
2021/10/04 08:45:34;;;;;;;;;6.50;5.00;;;;;19.98;51.63;100779.53;6111432;23;45312;-77
2021/10/04 08:48:02;;;;;;;;;3.25;3.00;;;;;20.02;52.11;100782.94;6136392;23;45241;-78
2021/10/04 08:50:30;;;;;;;;;3.25;3.25;;;;;19.98;52.15;100775.97;6185579;23;45273;-78
2021/10/04 08:52:56;;;;;;;;;6.00;4.50;;;;;19.96;52.06;100764.56;6135638;23;45341;-78
2021/10/04 08:55:22;;;;;;;;;5.00;3.75;;;;;19.99;52.23;100772.44;6136196;23;45360;-78
2021/10/04 08:57:48;;;;;;;;;3.50;2.75;;;;;20.01;51.97;100781.22;6135599;23;45392;-78
2021/10/04 09:00:14;;;;;;;;;2.25;2.00;;;;;20.02;52.35;100786.47;6135104;23;47589;-77
2021/10/04 09:02:39;;;;;;;;;4.75;2.00;;;;;19.99;51.66;100783.91;6136177;23;45335;-78
2021/10/04 09:05:21;;;;;;;;;4.00;3.00;;;;;19.98;52.07;100783.94;6160333;23;45284;-78
2021/10/04 09:07:51;;;;;;;;;4.00;2.00;;;;;19.96;52.06;100786.63;6160779;23;45425;-77
2021/10/04 09:10:19;;;;;;;;;2.50;2.25;;;;;19.97;52.43;100788.34;6160560;23;46556;-77
2021/10/04 09:12:52;;;;;;;;;3.25;3.25;;;;;20.00;52.59;100792.72;6160998;23;45128;-82
2021/10/04 09:15:26;;;;;;;;;3.25;2.00;;;;;20.04;52.05;100791.72;6160949;23;45376;-81
2021/10/04 09:17:51;;;;;;;;;4.00;4.00;;;;;20.12;52.33;100787.06;6111938;23;45562;-74
2021/10/04 09:20:17;;;;;;;;;5.25;3.00;;;;;20.13;52.21;100779.97;6135429;23;45518;-74
2021/10/04 09:22:42;;;;;;;;;4.00;2.50;;;;;20.13;52.56;100783.50;6135817;23;45222;-76
2021/10/04 09:25:08;;;;;;;;;3.75;3.75;;;;;20.19;52.08;100793.91;6135045;23;45233;-74
2021/10/04 09:27:38;;;;;;;;;2.00;2.00;;;;;20.10;52.28;100773.00;6135374;23;45109;-76
2021/10/04 09:30:10;;;;;;;;;3.25;2.00;;;;;20.11;52.58;100774.72;6109536;23;48576;-75
2021/10/04 09:32:38;;;;;;;;;3.50;2.25;;;;;20.21;52.37;100777.97;6111096;23;45335;-76
2021/10/04 09:35:23;;;;;;;;;2.00;1.00;;;;;20.24;52.37;100784.06;6160553;23;45379;-76
2021/10/04 09:37:53;;;;;;;;;5.00;2.75;;;;;20.25;52.51;100779.63;6160405;23;45449;-76
2021/10/04 09:40:47;;;;;;;;;4.75;3.00;;;;;20.24;52.17;100781.41;6160280;23;45267;-76
2021/10/04 09:43:23;;;;;;;;;3.00;2.75;;;;;20.31;53.04;100782.06;6164382;23;45159;-77
2021/10/04 09:46:06;;;;;;;;;4.00;2.25;;;;;20.31;52.55;100777.63;6159896;23;45190;-77
2021/10/04 09:48:32;;;;;;;;;2.50;2.00;;;;;20.30;52.66;100781.22;6135959;23;45405;-78
2021/10/04 09:51:10;;;;;;;;;2.50;2.50;;;;;20.29;52.45;100773.31;6159723;23;45406;-77
2021/10/04 09:53:36;;;;;;;;;4.00;4.00;;;;;20.30;52.37;100783.84;6137149;23;45253;-78
2021/10/04 09:56:01;;;;;;;;;4.50;2.00;;;;;20.27;52.16;100770.72;6187046;23;45207;-78
2021/10/04 09:58:31;;;;;;;;;3.00;2.00;;;;;20.25;52.34;100774.31;6186759;23;45185;-77
2021/10/04 10:01:01;;;;;;;;;3.50;2.25;;;;;20.25;51.91;100767.25;6135270;23;45423;-79
2021/10/04 10:03:39;;;;;;;;;4.00;3.25;;;;;20.26;52.17;100778.72;6159703;23;45314;-79
2021/10/04 10:06:04;;;;;;;;;6.75;2.50;;;;;20.19;52.64;100767.41;6135601;23;45321;-80
2021/10/04 10:08:30;;;;;;;;;4.75;2.00;;;;;20.23;52.49;100776.13;6160080;23;45344;-78
2021/10/04 10:11:00;;;;;;;;;5.75;3.75;;;;;20.28;52.83;100779.53;6135402;23;45386;-79
2021/10/04 10:13:27;;;;;;;;;5.75;2.00;;;;;20.30;52.75;100773.25;6110417;23;45118;-78
2021/10/04 10:16:08;;;;;;;;;2.00;2.00;;;;;20.31;52.80;100777.63;6110430;23;45403;-77
2021/10/04 10:19:10;;;;;;;;;5.75;3.25;;;;;20.30;52.63;100781.22;6160248;23;45283;-78
2021/10/04 10:21:38;;;;;;;;;3.50;2.50;;;;;20.28;52.94;100772.44;6074526;23;47328;-78
2021/10/04 10:24:07;;;;;;;;;3.50;1.75;;;;;20.32;52.79;100771.41;6174733;23;45385;-78
2021/10/04 10:26:43;;;;;;;;;2.50;1.25;;;;;20.27;52.36;100764.53;6134878;23;45373;-77
2021/10/04 10:29:09;;;;;;;;;1.50;1.00;;;;;20.30;52.63;100769.75;6136686;23;45517;-74
2021/10/04 10:31:55;;;;;;;;;3.50;2.00;;;;;20.32;53.48;100770.56;6160385;23;47996;-74
2021/10/04 10:34:30;;;;;;;;;3.50;3.50;;;;;20.32;53.45;100774.06;6158915;23;45589;-80
2021/10/04 10:37:15;;;;;;;;;2.50;2.50;;;;;20.33;52.91;100786.44;6159784;23;45271;-76
2021/10/04 10:39:46;;;;;;;;;1.75;1.75;;;;;20.35;53.36;100780.22;6160062;23;45211;-75
2021/10/04 10:42:13;;;;;;;;;1.50;1.50;;;;;20.36;52.89;100779.28;6159328;23;47175;-76
2021/10/04 10:45:09;;;;;;;;;3.25;1.00;;;;;20.37;52.84;100781.03;6134331;23;45732;-77
2021/10/04 10:47:34;;;;;;;;;2.00;1.00;;;;;20.40;52.59;100778.28;6186503;23;45335;-79
2021/10/04 10:50:21;;;;;;;;;2.00;1.00;;;;;20.42;52.62;100776.47;6186146;23;45381;-75
2021/10/04 10:52:58;;;;;;;;;4.00;1.00;;;;;20.43;52.76;100772.91;6185548;23;45503;-76
2021/10/04 10:55:24;;;;;;;;;3.25;2.00;;;;;20.45;52.67;100774.63;6158704;23;45327;-81
2021/10/04 10:57:52;;;;;;;;;2.50;1.25;;;;;20.46;52.96;100773.69;6186200;23;45340;-79
2021/10/04 11:00:41;;;;;;;;;4.75;1.00;;;;;20.45;52.28;100771.97;6186146;23;45250;-84
2021/10/04 11:03:23;;;;;;;;;2.75;1.00;;;;;20.33;52.63;100757.28;6140775;23;45562;-78
2021/10/04 11:06:03;;;;;;;;;;;;;;;;;;;;;
2021/10/04 11:09:02;;;;;;;;;2.00;1.00;;;;;20.44;53.35;100777.31;6161007;23;68185;-81
2021/10/04 11:11:28;;;;;;;;;3.00;2.00;;;;;20.34;52.70;100755.50;6159756;23;45229;-82
2021/10/04 11:14:10;;;;;;;;;1.50;1.00;;;;;20.38;52.67;100767.72;6110771;23;47244;-76
2021/10/04 11:16:38;;;;;;;;;2.00;1.75;;;;;20.40;53.10;100770.31;6161849;23;45247;-80
2021/10/04 11:19:04;;;;;;;;;1.25;1.25;;;;;20.32;53.34;100750.22;6137954;23;45445;-84
2021/10/04 11:21:29;;;;;;;;;1.25;1.25;;;;;20.39;53.26;100764.16;6135688;23;45423;-79
2021/10/04 11:24:01;;;;;;;;;2.00;2.00;;;;;20.35;53.59;100756.34;6160890;23;46212;-75
2021/10/04 11:26:27;;;;;;;;;1.50;1.00;;;;;20.35;53.77;100757.22;6162024;23;45260;-76
2021/10/04 11:29:00;;;;;;;;;2.00;2.00;;;;;20.38;53.84;100754.47;6136432;23;45196;-82